Terminal Aerodrome Forecast
Issued by NWS Melbourne, FL

Home | Current Version | Previous Version | Text Only | Print | Product List | Glossary On
Versions: 1 2 3 4 5 6 7 8 9 10 11 12 13 14
000
FTUS42 KMLB 012300
TAFMLB
TAF
KMLB 012330Z 0200/0224 03008KT P6SM SCT020 BKN050 BKN100
     FM020300 34003KT P6SM SCT060
     FM021500 02005KT P6SM SCT120
     FM021800 05010KT P6SM SCT120 BKN250=

USA.gov is the U.S. government's official web portal to all federal, state and local government web resources and services.